Time;durP1;ratioP1;P1;durP2;ratioP2;P2;SDS_P1;SDS_P2;PMS_P1;PMS_P2;Temp;Humidity;BMP_temperature;BMP_pressure;BME280_temperature;BME280_humidity;BME280_pressure;Samples;Min_cycle;Max_cycle;Signal;HPM_P1;HPM_P2
2023/01/14 00:02:24;;;;;;;22.67;2.80;;;;;;;;;;4947187;28;93890;-69
2023/01/14 00:04:50;;;;;;;16.30;2.65;;;;;;;;;;4937630;28;92512;-69
2023/01/14 00:07:16;;;;;;;18.98;3.03;;;;;;;;;;4938246;28;93019;-69
2023/01/14 00:09:43;;;;;;;12.10;2.42;;;;;;;;;;4936044;28;92500;-69
2023/01/14 00:12:09;;;;;;;28.30;3.83;;;;;;;;;;4936988;28;93110;-70
2023/01/14 00:14:36;;;;;;;14.10;2.83;;;;;;;;;;4937862;28;93574;-69
2023/01/14 00:17:02;;;;;;;24.02;3.55;;;;;;;;;;4937046;28;92498;-69
2023/01/14 00:19:29;;;;;;;24.63;3.10;;;;;;;;;;4935373;28;95114;-69
2023/01/14 00:21:55;;;;;;;21.02;3.20;;;;;;;;;;4937028;28;93882;-70
2023/01/14 00:24:22;;;;;;;19.17;2.95;;;;;;;;;;4948497;28;92400;-69
2023/01/14 00:26:49;;;;;;;16.90;2.92;;;;;;;;;;4937356;28;93231;-69
2023/01/14 00:29:17;;;;;;;22.40;3.88;;;;;;;;;;4939280;28;94470;-69
2023/01/14 00:31:43;;;;;;;17.58;3.15;;;;;;;;;;4954865;28;93212;-69
2023/01/14 00:34:10;;;;;;;27.08;3.80;;;;;;;;;;4955100;28;93738;-69
2023/01/14 00:36:36;;;;;;;34.75;3.80;;;;;;;;;;4939909;28;91715;-69
2023/01/14 00:39:03;;;;;;;29.13;3.60;;;;;;;;;;4939618;28;93002;-68
2023/01/14 00:41:29;;;;;;;22.75;3.20;;;;;;;;;;4940236;28;93552;-69
2023/01/14 00:43:57;;;;;;;21.90;3.25;;;;;;;;;;4935430;28;94874;-69
2023/01/14 00:46:28;;;;;;;12.43;2.15;;;;;;;;;;4945649;28;95525;-69
2023/01/14 00:48:54;;;;;;;23.67;3.20;;;;;;;;;;4937327;28;92672;-69
2023/01/14 00:51:20;;;;;;;20.63;3.05;;;;;;;;;;4938429;28;92453;-68
2023/01/14 00:53:47;;;;;;;16.48;2.55;;;;;;;;;;4936548;28;93846;-69
2023/01/14 00:56:14;;;;;;;26.38;3.38;;;;;;;;;;4935838;28;92427;-69
2023/01/14 00:58:40;;;;;;;19.58;3.13;;;;;;;;;;4934739;28;93261;-69
2023/01/14 01:01:06;;;;;;;25.02;2.97;;;;;;;;;;4935444;28;92490;-69
2023/01/14 01:03:36;;;;;;;20.70;2.70;;;;;;;;;;4935284;28;92507;-69
2023/01/14 01:06:03;;;;;;;18.63;3.10;;;;;;;;;;4936308;28;93148;-69
2023/01/14 01:08:29;;;;;;;17.65;3.28;;;;;;;;;;4934151;28;96859;-69
2023/01/14 01:10:56;;;;;;;17.88;2.95;;;;;;;;;;4935873;28;92634;-69
2023/01/14 01:13:23;;;;;;;25.80;3.67;;;;;;;;;;4938929;28;93559;-69
2023/01/14 01:15:50;;;;;;;22.67;3.97;;;;;;;;;;4936528;28;92492;-69
2023/01/14 01:18:16;;;;;;;24.30;3.05;;;;;;;;;;4942599;28;93356;-69
2023/01/14 01:20:42;;;;;;;20.15;3.70;;;;;;;;;;4943741;28;93478;-69
2023/01/14 01:23:11;;;;;;;32.20;3.88;;;;;;;;;;4934883;28;94006;-69
2023/01/14 01:25:37;;;;;;;18.90;2.55;;;;;;;;;;4940593;28;94956;-70
2023/01/14 01:28:03;;;;;;;23.30;3.90;;;;;;;;;;4942247;28;93478;-69
2023/01/14 01:30:30;;;;;;;28.52;3.92;;;;;;;;;;4939010;28;93264;-69
2023/01/14 01:32:56;;;;;;;28.35;4.55;;;;;;;;;;4938188;28;94928;-69
2023/01/14 01:35:23;;;;;;;26.40;4.78;;;;;;;;;;4954236;28;94065;-69
2023/01/14 01:37:50;;;;;;;30.23;5.30;;;;;;;;;;4947789;28;93564;-69
2023/01/14 01:40:16;;;;;;;20.00;3.92;;;;;;;;;;4938971;28;93519;-69
2023/01/14 01:42:55;;;;;;;34.40;3.85;;;;;;;;;;4937915;28;93207;-69
2023/01/14 01:45:42;;;;;;;25.33;4.00;;;;;;;;;;4939010;28;93405;-69
2023/01/14 01:48:16;;;;;;;27.40;3.38;;;;;;;;;;4935006;28;93686;-69
2023/01/14 01:50:45;;;;;;;25.02;3.20;;;;;;;;;;4934885;28;91798;-69
2023/01/14 01:53:12;;;;;;;30.25;3.88;;;;;;;;;;4945680;28;92574;-69
2023/01/14 01:55:39;;;;;;;29.88;3.42;;;;;;;;;;4941940;28;93439;-69
2023/01/14 01:58:07;;;;;;;15.27;3.10;;;;;;;;;;4936468;28;94840;-68
2023/01/14 02:00:33;;;;;;;21.85;3.35;;;;;;;;;;4928998;28;93754;-69
2023/01/14 02:03:01;;;;;;;25.08;3.80;;;;;;;;;;4938006;28;92485;-69
2023/01/14 02:05:27;;;;;;;23.33;3.33;;;;;;;;;;4945182;28;93225;-70
2023/01/14 02:07:55;;;;;;;26.77;3.60;;;;;;;;;;4937378;28;93593;-69
2023/01/14 02:10:22;;;;;;;38.78;4.22;;;;;;;;;;4935371;28;92827;-69
2023/01/14 02:12:54;;;;;;;36.00;4.22;;;;;;;;;;4934211;28;93506;-69
2023/01/14 02:15:38;;;;;;;24.90;3.53;;;;;;;;;;4939375;28;94307;-69
2023/01/14 02:18:07;;;;;;;32.53;4.55;;;;;;;;;;4951466;28;93244;-69
2023/01/14 02:20:40;;;;;;;30.70;3.97;;;;;;;;;;4936092;28;93959;-69
2023/01/14 02:23:06;;;;;;;36.58;5.25;;;;;;;;;;4934210;28;94921;-69
2023/01/14 02:25:56;;;;;;;29.02;4.15;;;;;;;;;;4933791;28;95591;-69
2023/01/14 02:28:28;;;;;;;25.58;4.05;;;;;;;;;;4857975;28;93886;-69
2023/01/14 02:31:00;;;;;;;31.30;4.93;;;;;;;;;;4871737;28;92701;-69
2023/01/14 02:33:27;;;;;;;35.40;4.05;;;;;;;;;;4872306;28;93549;-69
2023/01/14 02:35:56;;;;;;;27.50;3.13;;;;;;;;;;4873279;28;95735;-69
2023/01/14 02:38:28;;;;;;;25.45;4.10;;;;;;;;;;4873591;28;92548;-68
2023/01/14 02:41:09;;;;;;;37.13;3.53;;;;;;;;;;4877917;28;94308;-69
2023/01/14 02:46:38;;;;;;;29.05;3.85;;;;;;;;;;4867459;28;93835;-69
2023/01/14 02:49:05;;;;;;;34.00;5.03;;;;;;;;;;4870735;28;96088;-69
2023/01/14 02:51:32;;;;;;;31.17;3.67;;;;;;;;;;4873526;28;92809;-69
2023/01/14 02:53:59;;;;;;;20.35;4.18;;;;;;;;;;4873679;28;95234;-68
2023/01/14 02:56:26;;;;;;;25.38;3.90;;;;;;;;;;4872169;28;93525;-68
2023/01/14 02:58:58;;;;;;;29.73;3.90;;;;;;;;;;4872606;28;92566;-68
2023/01/14 03:01:38;;;;;;;29.50;4.65;;;;;;;;;;4863586;28;93485;-69
2023/01/14 03:04:19;;;;;;;30.70;6.07;;;;;;;;;;4876840;28;93466;-68
2023/01/14 03:06:54;;;;;;;24.15;3.78;;;;;;;;;;4932933;28;92432;-69
2023/01/14 03:09:20;;;;;;;27.42;4.90;;;;;;;;;;4934214;28;93796;-68
2023/01/14 03:11:57;;;;;;;38.47;4.43;;;;;;;;;;4935143;28;92410;-68
2023/01/14 03:14:31;;;;;;;32.00;4.18;;;;;;;;;;4931868;28;95185;-69
2023/01/14 03:17:01;;;;;;;31.92;4.68;;;;;;;;;;4933282;28;93453;-68
2023/01/14 03:19:38;;;;;;;25.38;4.13;;;;;;;;;;4937516;28;92429;-68
2023/01/14 03:22:05;;;;;;;37.08;4.78;;;;;;;;;;4937044;28;93115;-68
2023/01/14 03:24:33;;;;;;;30.17;5.57;;;;;;;;;;4937427;28;92442;-68
2023/01/14 03:27:02;;;;;;;30.20;4.60;;;;;;;;;;4939703;28;93061;-69
2023/01/14 03:29:31;;;;;;;29.60;4.28;;;;;;;;;;4935968;28;93749;-68
2023/01/14 03:32:03;;;;;;;20.67;4.05;;;;;;;;;;4936971;28;93463;-68
2023/01/14 03:34:32;;;;;;;30.08;4.80;;;;;;;;;;4941106;28;92608;-69
2023/01/14 03:37:00;;;;;;;32.50;5.63;;;;;;;;;;4936576;28;93878;-69
2023/01/14 03:39:28;;;;;;;30.23;5.70;;;;;;;;;;4936922;28;95149;-69
2023/01/14 03:44:52;;;;;;;40.38;5.38;;;;;;;;;;4956480;28;93394;-69
2023/01/14 03:47:19;;;;;;;32.75;5.05;;;;;;;;;;4935519;28;93530;-69
2023/01/14 03:49:45;;;;;;;31.15;4.88;;;;;;;;;;4941819;28;93867;-69
2023/01/14 03:52:11;;;;;;;32.38;5.05;;;;;;;;;;4937160;28;92489;-69
2023/01/14 03:54:48;;;;;;;28.50;5.38;;;;;;;;;;4937839;28;93351;-69
2023/01/14 03:57:21;;;;;;;32.22;5.32;;;;;;;;;;4942508;28;92758;-69
2023/01/14 03:59:56;;;;;;;38.65;5.82;;;;;;;;;;4951929;28;92527;-69
2023/01/14 04:02:23;;;;;;;40.38;5.50;;;;;;;;;;4946451;28;96598;-69
2023/01/14 04:04:50;;;;;;;35.90;7.00;;;;;;;;;;4935658;28;96019;-69
2023/01/14 04:07:17;;;;;;;30.83;5.22;;;;;;;;;;4945050;28;93500;-68
2023/01/14 04:09:43;;;;;;;38.47;7.10;;;;;;;;;;4942706;28;93500;-68
2023/01/14 04:12:09;;;;;;;34.33;4.68;;;;;;;;;;4942021;28;96044;-69
2023/01/14 04:17:21;;;;;;;46.70;5.63;;;;;;;;;;4942705;28;93664;-68
2023/01/14 04:19:48;;;;;;;36.60;6.35;;;;;;;;;;4937959;28;92486;-68
2023/01/14 04:22:14;;;;;;;49.70;5.75;;;;;;;;;;4936671;28;93485;-68
2023/01/14 04:24:40;;;;;;;38.95;6.35;;;;;;;;;;4937018;28;93374;-68
2023/01/14 04:27:07;;;;;;;54.40;6.07;;;;;;;;;;4946773;28;92667;-68
2023/01/14 04:29:33;;;;;;;40.97;6.07;;;;;;;;;;4942525;28;96575;-68
2023/01/14 04:31:59;;;;;;;54.20;6.85;;;;;;;;;;4940425;28;93448;-68
2023/01/14 04:34:26;;;;;;;38.50;5.32;;;;;;;;;;4933784;28;93506;-69
2023/01/14 04:36:52;;;;;;;37.85;5.60;;;;;;;;;;4935195;28;94420;-68
2023/01/14 04:39:18;;;;;;;45.38;6.07;;;;;;;;;;4946475;28;92447;-68
2023/01/14 04:44:31;;;;;;;55.97;6.45;;;;;;;;;;4946064;28;93562;-68
2023/01/14 04:46:57;;;;;;;53.03;5.80;;;;;;;;;;4938006;28;92080;-68
2023/01/14 04:49:23;;;;;;;47.17;6.25;;;;;;;;;;4945309;28;92586;-68
2023/01/14 04:51:50;;;;;;;52.92;8.23;;;;;;;;;;4936345;28;92950;-68
2023/01/14 04:54:16;;;;;;;38.40;5.18;;;;;;;;;;4939411;28;95208;-68
2023/01/14 04:56:42;;;;;;;49.25;5.95;;;;;;;;;;4939328;28;93419;-68
2023/01/14 04:59:08;;;;;;;45.30;4.75;;;;;;;;;;4935330;28;92556;-68
2023/01/14 05:01:35;;;;;;;34.95;6.22;;;;;;;;;;4936783;28;93233;-68
2023/01/14 05:04:01;;;;;;;37.63;5.55;;;;;;;;;;4933374;28;93732;-68
2023/01/14 05:06:28;;;;;;;58.83;6.28;;;;;;;;;;4935215;28;93404;-68
2023/01/14 05:08:54;;;;;;;45.50;6.35;;;;;;;;;;4941039;28;92993;-68
2023/01/14 05:11:21;;;;;;;52.22;7.40;;;;;;;;;;4935964;28;92668;-68
2023/01/14 05:13:47;;;;;;;57.67;5.50;;;;;;;;;;4950746;28;92620;-68
2023/01/14 05:16:16;;;;;;;30.77;4.50;;;;;;;;;;4944808;28;93481;-68
2023/01/14 05:18:42;;;;;;;35.10;6.10;;;;;;;;;;4945254;28;95163;-68
2023/01/14 05:21:09;;;;;;;36.08;5.18;;;;;;;;;;4936818;28;96860;-68
2023/01/14 05:23:35;;;;;;;36.88;7.18;;;;;;;;;;4946056;28;93880;-68
2023/01/14 05:26:01;;;;;;;34.22;4.35;;;;;;;;;;4934812;28;92391;-68
2023/01/14 05:28:28;;;;;;;47.50;5.57;;;;;;;;;;4943624;28;93293;-68
2023/01/14 05:30:54;;;;;;;45.95;5.40;;;;;;;;;;4934818;28;93667;-68
2023/01/14 05:33:20;;;;;;;28.58;4.22;;;;;;;;;;4935960;28;92796;-68
2023/01/14 05:35:47;;;;;;;54.15;5.53;;;;;;;;;;4934376;28;93330;-68
2023/01/14 05:38:13;;;;;;;31.95;4.80;;;;;;;;;;4946754;28;93474;-68
2023/01/14 05:40:39;;;;;;;41.90;5.80;;;;;;;;;;4939541;28;93226;-68
2023/01/14 05:45:51;;;;;;;44.92;4.78;;;;;;;;;;4945344;28;92770;-68
2023/01/14 05:48:19;;;;;;;42.67;5.00;;;;;;;;;;4936652;28;93512;-68
2023/01/14 05:50:49;;;;;;;34.13;5.10;;;;;;;;;;4942016;28;94792;-68
2023/01/14 05:53:15;;;;;;;33.30;4.47;;;;;;;;;;4932654;28;92463;-69
2023/01/14 05:55:41;;;;;;;32.72;4.97;;;;;;;;;;4934295;28;93480;-68
2023/01/14 05:58:08;;;;;;;25.00;4.38;;;;;;;;;;4936330;28;93453;-69
2023/01/14 06:06:27;;;;;;;33.45;4.05;;;;;;;;;;4945625;28;93736;-69
2023/01/14 06:08:58;;;;;;;32.22;4.90;;;;;;;;;;4937124;28;96097;-69
2023/01/14 06:11:25;;;;;;;;;;;;;;;;;;4939521;28;93418;-69
2023/01/14 06:13:56;;;;;;;31.90;4.47;;;;;;;;;;4936493;28;118349;-69
2023/01/14 06:16:23;;;;;;;26.98;4.07;;;;;;;;;;4939632;28;93240;-69
2023/01/14 06:18:50;;;;;;;49.00;6.10;;;;;;;;;;4939178;28;93575;-70
2023/01/14 06:21:17;;;;;;;26.80;4.20;;;;;;;;;;4941055;28;92488;-69
2023/01/14 06:23:44;;;;;;;33.85;5.97;;;;;;;;;;4945228;28;94296;-68
2023/01/14 06:26:15;;;;;;;41.92;4.57;;;;;;;;;;4935871;28;91764;-68
2023/01/14 06:28:42;;;;;;;34.30;4.22;;;;;;;;;;4943819;28;92574;-67
2023/01/14 06:31:09;;;;;;;34.80;4.55;;;;;;;;;;4942063;28;92510;-66
2023/01/14 06:33:36;;;;;;;35.97;4.80;;;;;;;;;;4931912;28;95116;-68
2023/01/14 06:36:02;;;;;;;27.75;4.55;;;;;;;;;;4935571;28;95559;-68
2023/01/14 06:38:29;;;;;;;35.22;5.03;;;;;;;;;;4933619;28;93596;-67
2023/01/14 06:40:59;;;;;;;35.50;5.50;;;;;;;;;;4936182;28;92835;-67
2023/01/14 06:43:26;;;;;;;38.28;6.78;;;;;;;;;;4931228;28;93043;-67
2023/01/14 06:45:52;;;;;;;33.58;4.88;;;;;;;;;;4938574;28;92702;-67
2023/01/14 06:48:19;;;;;;;22.48;3.88;;;;;;;;;;4938835;28;94478;-68
2023/01/14 06:50:45;;;;;;;32.58;4.75;;;;;;;;;;4935904;28;92720;-68
2023/01/14 06:53:11;;;;;;;32.17;4.65;;;;;;;;;;4932927;28;93962;-67
2023/01/14 06:55:38;;;;;;;27.85;4.65;;;;;;;;;;4933483;28;94088;-68
2023/01/14 06:58:04;;;;;;;38.35;4.20;;;;;;;;;;4934330;28;94916;-68
2023/01/14 07:00:30;;;;;;;17.88;3.15;;;;;;;;;;4936547;28;92575;-68
2023/01/14 07:02:57;;;;;;;27.98;4.22;;;;;;;;;;4943419;28;93296;-69
2023/01/14 07:05:23;;;;;;;28.58;3.25;;;;;;;;;;4950120;28;95459;-68
2023/01/14 07:07:49;;;;;;;32.22;4.50;;;;;;;;;;4942455;28;93420;-68
2023/01/14 07:10:16;;;;;;;29.67;4.03;;;;;;;;;;4943007;28;93408;-68
2023/01/14 07:12:44;;;;;;;35.97;4.15;;;;;;;;;;4934560;28;92563;-68
2023/01/14 07:15:10;;;;;;;41.85;6.10;;;;;;;;;;4935581;28;93671;-68
2023/01/14 07:17:37;;;;;;;33.67;4.07;;;;;;;;;;4939502;28;93610;-68
2023/01/14 07:20:05;;;;;;;35.35;4.10;;;;;;;;;;4943946;28;92632;-68
2023/01/14 07:22:31;;;;;;;20.88;4.13;;;;;;;;;;4938915;28;96473;-68
2023/01/14 07:24:57;;;;;;;34.72;4.25;;;;;;;;;;4933684;28;94385;-68
2023/01/14 07:27:24;;;;;;;26.70;4.50;;;;;;;;;;4936610;28;92578;-67
2023/01/14 07:29:50;;;;;;;22.80;3.95;;;;;;;;;;4932685;28;93394;-68
2023/01/14 07:32:16;;;;;;;34.63;5.05;;;;;;;;;;4934337;28;92664;-70
2023/01/14 07:34:43;;;;;;;34.85;4.40;;;;;;;;;;4937450;28;93823;-68
2023/01/14 07:37:09;;;;;;;40.67;6.00;;;;;;;;;;4945003;28;94553;-68
2023/01/14 07:39:35;;;;;;;30.60;4.60;;;;;;;;;;4933817;28;92037;-68
2023/01/14 07:42:02;;;;;;;39.80;5.32;;;;;;;;;;4932848;28;92553;-67
2023/01/14 07:44:28;;;;;;;34.47;4.55;;;;;;;;;;4932390;28;93616;-67
2023/01/14 07:46:54;;;;;;;28.75;5.22;;;;;;;;;;4930986;28;94907;-68
2023/01/14 07:49:21;;;;;;;34.15;5.50;;;;;;;;;;4949148;28;96966;-67
2023/01/14 07:51:48;;;;;;;40.85;6.00;;;;;;;;;;4937635;28;92621;-68
2023/01/14 07:54:15;;;;;;;29.58;6.65;;;;;;;;;;4934986;28;93272;-68
2023/01/14 07:56:42;;;;;;;29.48;7.32;;;;;;;;;;4933445;28;93423;-68
2023/01/14 07:59:08;;;;;;;27.67;4.90;;;;;;;;;;4932579;28;92539;-68
2023/01/14 08:01:35;;;;;;;18.70;4.15;;;;;;;;;;4933597;28;93200;-67
2023/01/14 08:04:01;;;;;;;19.95;4.40;;;;;;;;;;4932965;28;92348;-67
2023/01/14 08:06:28;;;;;;;24.08;4.32;;;;;;;;;;4940157;28;92536;-67
2023/01/14 08:08:54;;;;;;;21.40;3.85;;;;;;;;;;4934113;28;93278;-68
2023/01/14 08:11:21;;;;;;;28.13;4.28;;;;;;;;;;4938175;28;96022;-68
2023/01/14 08:13:50;;;;;;;32.42;4.90;;;;;;;;;;4936156;28;97845;-68
2023/01/14 08:16:17;;;;;;;16.92;3.70;;;;;;;;;;4938920;28;93758;-68
2023/01/14 08:18:43;;;;;;;24.35;4.60;;;;;;;;;;4936290;28;93441;-68
2023/01/14 08:21:10;;;;;;;24.77;4.10;;;;;;;;;;4950885;28;93516;-67
2023/01/14 08:23:36;;;;;;;18.40;3.42;;;;;;;;;;4937875;28;93441;-68
2023/01/14 08:26:04;;;;;;;15.32;3.38;;;;;;;;;;4936767;28;93338;-68
2023/01/14 08:28:30;;;;;;;19.33;3.75;;;;;;;;;;4934741;28;93221;-68
2023/01/14 08:31:07;;;;;;;22.15;4.55;;;;;;;;;;4934009;28;94658;-68
2023/01/14 08:33:34;;;;;;;15.77;4.05;;;;;;;;;;4941289;28;92651;-68
2023/01/14 08:36:08;;;;;;;18.70;3.83;;;;;;;;;;4935754;28;95891;-68
2023/01/14 08:38:38;;;;;;;14.85;3.83;;;;;;;;;;4946992;28;92553;-68
2023/01/14 08:41:08;;;;;;;17.80;3.58;;;;;;;;;;4956251;28;93763;-68
2023/01/14 08:43:35;;;;;;;15.73;3.42;;;;;;;;;;4940603;28;92903;-68
2023/01/14 08:46:02;;;;;;;11.15;3.03;;;;;;;;;;4954167;28;92567;-68
2023/01/14 08:48:29;;;;;;;16.95;3.58;;;;;;;;;;4947630;28;94307;-68
2023/01/14 08:51:03;;;;;;;14.93;3.67;;;;;;;;;;4945492;28;93621;-68
2023/01/14 08:53:30;;;;;;;14.50;3.38;;;;;;;;;;4944137;28;91774;-68
2023/01/14 08:55:59;;;;;;;8.18;2.85;;;;;;;;;;4938185;28;93377;-68
2023/01/14 08:58:26;;;;;;;10.70;3.30;;;;;;;;;;4938679;28;92484;-68
2023/01/14 09:00:59;;;;;;;9.68;3.38;;;;;;;;;;4936659;28;94876;-68
2023/01/14 09:03:29;;;;;;;10.40;3.35;;;;;;;;;;4943817;28;93891;-68
2023/01/14 09:05:56;;;;;;;8.07;3.40;;;;;;;;;;4938984;28;92653;-68
2023/01/14 09:19:25;;;;;;;15.48;4.07;;;;;;;;;;4936588;28;92237;-68
2023/01/14 09:21:51;;;;;;;16.50;4.32;;;;;;;;;;4933720;28;92507;-68
2023/01/14 09:24:18;;;;;;;20.98;4.20;;;;;;;;;;4936844;28;93389;-67
2023/01/14 09:26:44;;;;;;;9.55;3.20;;;;;;;;;;4933085;28;95030;-67
2023/01/14 09:29:10;;;;;;;14.65;3.67;;;;;;;;;;4937486;28;98023;-67
2023/01/14 09:31:36;;;;;;;11.45;3.10;;;;;;;;;;4935875;28;93313;-67
2023/01/14 09:34:04;;;;;;;11.52;3.42;;;;;;;;;;4944361;28;93689;-67
2023/01/14 09:36:30;;;;;;;10.25;3.78;;;;;;;;;;4941050;28;93236;-68
2023/01/14 09:38:57;;;;;;;9.27;3.00;;;;;;;;;;4933784;28;93475;-68
2023/01/14 09:41:27;;;;;;;13.45;3.53;;;;;;;;;;4934848;28;92395;-67
2023/01/14 09:43:54;;;;;;;8.90;3.10;;;;;;;;;;4936238;28;93237;-67
2023/01/14 09:46:22;;;;;;;12.05;3.20;;;;;;;;;;4936745;28;93790;-68
2023/01/14 09:48:48;;;;;;;9.70;3.17;;;;;;;;;;4933914;28;94747;-67
2023/01/14 09:51:28;;;;;;;9.23;2.90;;;;;;;;;;4932654;28;95897;-68
2023/01/14 09:54:09;;;;;;;12.68;2.78;;;;;;;;;;4934839;28;92713;-68
2023/01/14 09:56:36;;;;;;;15.77;3.25;;;;;;;;;;4934645;28;93180;-68
2023/01/14 09:59:25;;;;;;;14.00;3.00;;;;;;;;;;4937957;28;93504;-68
2023/01/14 10:01:51;;;;;;;10.02;2.97;;;;;;;;;;4875126;28;92811;-68
2023/01/14 10:04:28;;;;;;;9.00;2.75;;;;;;;;;;4874939;28;93947;-68
2023/01/14 10:06:56;;;;;;;12.18;3.20;;;;;;;;;;4867451;28;93885;-68
2023/01/14 10:09:45;;;;;;;13.45;2.60;;;;;;;;;;4857240;29;93521;-68
2023/01/14 10:12:15;;;;;;;10.05;2.38;;;;;;;;;;4850568;28;92771;-68
2023/01/14 10:14:51;;;;;;;11.45;3.13;;;;;;;;;;4841717;29;93691;-67
2023/01/14 10:17:21;;;;;;;11.63;3.15;;;;;;;;;;4872928;28;94976;-68
2023/01/14 10:19:49;;;;;;;10.57;2.72;;;;;;;;;;4875271;28;93652;-68
2023/01/14 10:22:15;;;;;;;8.27;2.80;;;;;;;;;;4867128;28;92611;-67
2023/01/14 10:24:42;;;;;;;12.20;2.55;;;;;;;;;;4868624;28;93257;-68
2023/01/14 10:27:11;;;;;;;11.88;2.95;;;;;;;;;;4859801;28;92703;-68
2023/01/14 10:29:38;;;;;;;11.07;2.10;;;;;;;;;;4862953;28;93412;-68
2023/01/14 10:32:04;;;;;;;7.85;2.50;;;;;;;;;;4876402;28;94140;-68
2023/01/14 10:34:38;;;;;;;14.70;2.53;;;;;;;;;;4877637;28;91742;-68
2023/01/14 10:37:08;;;;;;;10.85;3.30;;;;;;;;;;4865352;28;94218;-67
2023/01/14 10:39:34;;;;;;;14.98;2.88;;;;;;;;;;4917404;28;94908;-68
2023/01/14 10:42:01;;;;;;;11.60;3.17;;;;;;;;;;4926224;28;95400;-68
2023/01/14 10:44:29;;;;;;;12.32;2.75;;;;;;;;;;4947821;28;95672;-68
2023/01/14 10:46:57;;;;;;;11.32;1.77;;;;;;;;;;4935349;28;92522;-67
2023/01/14 10:49:31;;;;;;;14.05;2.55;;;;;;;;;;4954004;28;93063;-67
2023/01/14 10:51:57;;;;;;;9.57;4.72;;;;;;;;;;4936751;28;93645;-67
2023/01/14 10:54:24;;;;;;;9.80;4.43;;;;;;;;;;4949897;28;92729;-67
2023/01/14 10:56:51;;;;;;;11.82;2.60;;;;;;;;;;4948123;28;93070;-67
2023/01/14 10:59:20;;;;;;;8.73;2.58;;;;;;;;;;4941022;28;93427;-67
2023/01/14 11:01:46;;;;;;;13.13;2.55;;;;;;;;;;4936088;28;92495;-67
2023/01/14 11:04:13;;;;;;;9.48;2.60;;;;;;;;;;4943863;28;92479;-67
2023/01/14 11:06:39;;;;;;;11.68;3.58;;;;;;;;;;4951047;28;95858;-67
2023/01/14 11:09:14;;;;;;;9.85;2.22;;;;;;;;;;4939449;28;95595;-68
2023/01/14 11:11:42;;;;;;;10.88;2.40;;;;;;;;;;4955336;28;93344;-68
2023/01/14 11:14:19;;;;;;;14.43;4.20;;;;;;;;;;4939152;28;92647;-68
2023/01/14 11:16:45;;;;;;;10.55;3.10;;;;;;;;;;4941308;28;94446;-68
2023/01/14 11:19:14;;;;;;;7.45;3.00;;;;;;;;;;4950890;28;93512;-68
2023/01/14 11:21:42;;;;;;;13.90;2.92;;;;;;;;;;4953442;28;92500;-68
2023/01/14 11:24:23;;;;;;;8.90;3.35;;;;;;;;;;4935484;28;93177;-69
2023/01/14 11:26:58;;;;;;;9.18;4.97;;;;;;;;;;4926305;28;95074;-68
2023/01/14 11:29:25;;;;;;;10.95;3.35;;;;;;;;;;4944970;28;94337;-69
2023/01/14 11:31:53;;;;;;;12.52;3.00;;;;;;;;;;4930372;28;95826;-68
2023/01/14 11:34:34;;;;;;;8.85;2.30;;;;;;;;;;4933563;28;92486;-68
2023/01/14 11:37:00;;;;;;;;;;;;;;;;;;4936086;28;93308;-68
2023/01/14 11:39:26;;;;;;;8.18;2.28;;;;;;;;;;4944790;28;125000;-68
2023/01/14 11:41:53;;;;;;;6.65;1.80;;;;;;;;;;4938442;28;92388;-68
2023/01/14 11:44:22;;;;;;;7.07;1.58;;;;;;;;;;4935439;28;93226;-68
2023/01/14 11:47:01;;;;;;;6.65;1.88;;;;;;;;;;4932191;28;93569;-68
2023/01/14 11:49:28;;;;;;;6.82;2.08;;;;;;;;;;4947641;28;91741;-68
2023/01/14 11:51:56;;;;;;;2.35;1.40;;;;;;;;;;4940970;28;92868;-68
2023/01/14 11:54:23;;;;;;;8.48;1.77;;;;;;;;;;4935623;28;92492;-68
2023/01/14 11:56:49;;;;;;;5.85;1.45;;;;;;;;;;4936271;28;94837;-68
2023/01/14 11:59:29;;;;;;;5.85;1.75;;;;;;;;;;4942889;28;93365;-68
2023/01/14 12:01:59;;;;;;;3.85;1.85;;;;;;;;;;4946182;28;92547;-68
2023/01/14 12:04:29;;;;;;;3.63;1.73;;;;;;;;;;4955463;28;93464;-68
2023/01/14 12:06:59;;;;;;;4.65;1.60;;;;;;;;;;4957405;28;95991;-68
2023/01/14 12:09:41;;;;;;;7.22;1.77;;;;;;;;;;4947521;28;92546;-68
2023/01/14 12:12:29;;;;;;;2.20;1.60;;;;;;;;;;4948575;28;93655;-68
2023/01/14 12:17:53;;;;;;;3.05;1.52;;;;;;;;;;4918422;28;92403;-68
2023/01/14 12:20:21;;;;;;;13.20;3.20;;;;;;;;;;4946139;28;96231;-68
2023/01/14 12:22:51;;;;;;;4.47;1.40;;;;;;;;;;4955618;28;95049;-68
2023/01/14 12:25:18;;;;;;;;;;;;;;;;;;4941267;28;96574;-68
2023/01/14 12:27:56;;;;;;;4.65;1.70;;;;;;;;;;4935706;28;124015;-68
2023/01/14 12:30:25;;;;;;;5.97;1.42;;;;;;;;;;4941185;28;94200;-67
2023/01/14 12:33:01;;;;;;;6.15;1.33;;;;;;;;;;4937309;28;93226;-67
2023/01/14 12:35:31;;;;;;;3.20;1.40;;;;;;;;;;4937250;28;93432;-67
2023/01/14 12:38:01;;;;;;;5.93;1.45;;;;;;;;;;4940352;28;93216;-67
2023/01/14 12:46:14;;;;;;;3.65;1.60;;;;;;;;;;4939250;28;93122;-67
2023/01/14 12:48:40;;;;;;;4.90;1.63;;;;;;;;;;4942076;28;95898;-67
2023/01/14 12:51:16;;;;;;;6.28;1.48;;;;;;;;;;4939467;28;92462;-67
2023/01/14 12:53:47;;;;;;;5.55;2.00;;;;;;;;;;4919382;28;93153;-67
2023/01/14 12:56:30;;;;;;;4.20;1.25;;;;;;;;;;4936277;28;93768;-68
2023/01/14 12:59:01;;;;;;;1.38;1.10;;;;;;;;;;4938021;28;92569;-67
2023/01/14 13:01:34;;;;;;;3.72;1.50;;;;;;;;;;4933356;28;93527;-68
2023/01/14 13:04:02;;;;;;;2.88;1.30;;;;;;;;;;4938963;28;92669;-68
2023/01/14 13:06:32;;;;;;;3.42;1.50;;;;;;;;;;4955125;28;93003;-67
2023/01/14 13:08:59;;;;;;;3.88;2.00;;;;;;;;;;4942947;28;93450;-68
2023/01/14 13:11:27;;;;;;;6.65;2.25;;;;;;;;;;4954935;28;92655;-67
2023/01/14 13:13:55;;;;;;;4.72;3.05;;;;;;;;;;4955113;28;94845;-67
2023/01/14 13:16:24;;;;;;;3.15;1.45;;;;;;;;;;4944993;28;94742;-67
2023/01/14 13:19:02;;;;;;;4.03;1.45;;;;;;;;;;4949970;28;92782;-67
2023/01/14 13:21:47;;;;;;;1.48;1.38;;;;;;;;;;4957577;28;93689;-67
2023/01/14 13:24:27;;;;;;;2.90;1.50;;;;;;;;;;4956322;28;92899;-67
2023/01/14 13:26:54;;;;;;;3.50;1.57;;;;;;;;;;4943913;28;93166;-67
2023/01/14 13:29:22;;;;;;;2.20;1.50;;;;;;;;;;4934684;28;93590;-67
2023/01/14 13:31:49;;;;;;;1.27;1.17;;;;;;;;;;4935538;28;91804;-67
2023/01/14 13:34:21;;;;;;;3.03;1.45;;;;;;;;;;4936745;28;93612;-67
2023/01/14 13:37:08;;;;;;;4.93;1.80;;;;;;;;;;4940852;28;93425;-67
2023/01/14 13:39:34;;;;;;;3.95;1.73;;;;;;;;;;4944265;28;95806;-67
2023/01/14 13:42:15;;;;;;;5.28;1.70;;;;;;;;;;4954631;28;98169;-67
2023/01/14 13:44:48;;;;;;;2.97;1.60;;;;;;;;;;4957562;28;96699;-67
2023/01/14 13:47:26;;;;;;;6.80;1.80;;;;;;;;;;4953097;28;93989;-67
2023/01/14 13:49:58;;;;;;;3.95;1.92;;;;;;;;;;4940580;28;93889;-67
2023/01/14 13:52:26;;;;;;;3.03;1.98;;;;;;;;;;4936497;28;92455;-67
2023/01/14 13:55:03;;;;;;;6.07;1.90;;;;;;;;;;4936353;28;94352;-67
2023/01/14 13:57:32;;;;;;;1.98;1.88;;;;;;;;;;4942597;28;91971;-70
2023/01/14 14:00:04;;;;;;;2.33;1.90;;;;;;;;;;4935764;28;92431;-67
2023/01/14 14:02:50;;;;;;;7.30;2.00;;;;;;;;;;4935823;28;93398;-67
2023/01/14 14:05:26;;;;;;;2.75;1.60;;;;;;;;;;4931832;28;97669;-67
2023/01/14 14:07:53;;;;;;;2.72;1.80;;;;;;;;;;4939000;28;92563;-67
2023/01/14 14:10:22;;;;;;;24.65;3.55;;;;;;;;;;4935872;28;93805;-68
2023/01/14 14:15:51;;;;;;;37.17;5.00;;;;;;;;;;4926731;28;93263;-67
2023/01/14 14:18:23;;;;;;;4.75;1.75;;;;;;;;;;4935595;28;93617;-67
2023/01/14 14:20:50;;;;;;;25.80;4.22;;;;;;;;;;4932852;28;93797;-67
2023/01/14 14:23:29;;;;;;;5.70;2.42;;;;;;;;;;4930739;28;93493;-68
2023/01/14 14:25:55;;;;;;;17.13;3.53;;;;;;;;;;4931226;28;95195;-67
2023/01/14 14:28:24;;;;;;;11.48;3.08;;;;;;;;;;4935282;28;92437;-68
2023/01/14 14:31:01;;;;;;;24.80;4.07;;;;;;;;;;4936972;28;95643;-68
2023/01/14 14:33:39;;;;;;;34.35;4.50;;;;;;;;;;4931251;28;93893;-68
2023/01/14 14:36:20;;;;;;;8.07;2.85;;;;;;;;;;4930418;28;93565;-68
2023/01/14 14:38:48;;;;;;;16.20;2.60;;;;;;;;;;4931152;28;94105;-69
2023/01/14 14:41:16;;;;;;;16.95;3.15;;;;;;;;;;4934904;28;92678;-68
2023/01/14 14:43:43;;;;;;;20.83;3.10;;;;;;;;;;4941505;28;94219;-68
2023/01/14 14:46:10;;;;;;;19.05;3.20;;;;;;;;;;4943120;28;93400;-68
2023/01/14 14:48:40;;;;;;;2.30;1.60;;;;;;;;;;4935960;28;91849;-68
2023/01/14 14:51:13;;;;;;;8.73;2.30;;;;;;;;;;4935197;28;92645;-68
2023/01/14 14:53:44;;;;;;;4.82;1.52;;;;;;;;;;4938008;28;94764;-68
2023/01/14 14:56:15;;;;;;;5.18;1.98;;;;;;;;;;4932754;28;94886;-68
2023/01/14 14:58:43;;;;;;;;;;;;;;;;;;4935297;28;93453;-67
2023/01/14 15:01:09;;;;;;;7.13;1.40;;;;;;;;;;4934581;28;116747;-68
2023/01/14 15:03:37;;;;;;;2.45;1.25;;;;;;;;;;4936654;28;94501;-68
2023/01/14 15:06:10;;;;;;;2.83;1.67;;;;;;;;;;4935177;28;92628;-68
2023/01/14 15:08:39;;;;;;;2.55;1.73;;;;;;;;;;4944127;28;92694;-68
2023/01/14 15:11:07;;;;;;;1.48;1.40;;;;;;;;;;4953949;28;94737;-68
2023/01/14 15:13:38;;;;;;;5.47;3.35;;;;;;;;;;4958408;28;93695;-68
2023/01/14 15:16:11;;;;;;;3.55;1.35;;;;;;;;;;4947791;28;92497;-68
2023/01/14 15:18:40;;;;;;;1.67;1.48;;;;;;;;;;4942779;28;93633;-68
2023/01/14 15:21:08;;;;;;;3.33;2.40;;;;;;;;;;4935565;28;94910;-68
2023/01/14 15:23:36;;;;;;;3.35;1.55;;;;;;;;;;4937981;28;95513;-68
2023/01/14 15:26:03;;;;;;;2.53;1.60;;;;;;;;;;4945701;28;95756;-68
2023/01/14 15:28:30;;;;;;;1.45;1.35;;;;;;;;;;4945862;28;93013;-68